EZY26PR EDDH-EGKK
Flight info
| Callsign | EZY26PR |
|---|---|
| Flight time | N/A |
| Altitude | 38000 |
| Route | WSN5G/33 WSN N125 ONTAZ DCT GALSO Q63 ARREK Y4 TEBRA |
| Aircraft | A320/M-SDE3FGHIRWY/LB1 |
Departure
| Time | N/A |
|---|---|
| Airport | Hamburg Helmut Schmidt Airport (EDDH) |
Arrival
| Time | 2026-05-04 19:35 |
|---|---|
| Airport | London Gatwick Airport (EGKK) |
| Time | Latitude | Longitude | Altitude | Speed | Heading |
|---|---|---|---|---|---|
| 2026-05-04 18:55 | 52.00717 | 4.03216 | 37988 ft | 412 kts | 240° |
| 2026-05-04 18:55 | 51.96401 | 3.89362 | 37990 ft | 413 kts | 242° |
| 2026-05-04 18:56 | 51.93804 | 3.81044 | 37997 ft | 413 kts | 242° |
| 2026-05-04 18:56 | 51.91172 | 3.72754 | 37997 ft | 414 kts | 241° |
| 2026-05-04 18:57 | 51.88541 | 3.64517 | 37997 ft | 414 kts | 241° |
| 2026-05-04 18:57 | 51.85876 | 3.56210 | 38003 ft | 414 kts | 241° |
| 2026-05-04 18:58 | 51.83216 | 3.47923 | 38001 ft | 415 kts | 241° |
| 2026-05-04 18:58 | 51.80556 | 3.39643 | 37998 ft | 415 kts | 241° |
| 2026-05-04 18:59 | 51.77897 | 3.31425 | 38003 ft | 415 kts | 241° |
| 2026-05-04 18:59 | 51.75209 | 3.23128 | 38006 ft | 416 kts | 241° |
| 2026-05-04 19:00 | 51.73091 | 3.14441 | 38002 ft | 419 kts | 256° |
| 2026-05-04 19:00 | 51.72653 | 3.09844 | 37816 ft | 419 kts | 260° |
| 2026-05-04 19:00 | 51.72261 | 3.05171 | 37123 ft | 419 kts | 260° |
| 2026-05-04 19:01 | 51.71866 | 3.00529 | 36411 ft | 418 kts | 260° |
| 2026-05-04 19:01 | 51.71461 | 2.95876 | 35710 ft | 418 kts | 259° |
| 2026-05-04 19:01 | 51.71053 | 2.91240 | 35022 ft | 417 kts | 259° |
| 2026-05-04 19:01 | 51.70642 | 2.86621 | 34459 ft | 413 kts | 259° |
| 2026-05-04 19:02 | 51.70235 | 2.82062 | 33970 ft | 407 kts | 259° |
| 2026-05-04 19:02 | 51.69842 | 2.77636 | 33382 ft | 403 kts | 259° |
| 2026-05-04 19:02 | 51.69440 | 2.73125 | 32772 ft | 399 kts | 259° |
| 2026-05-04 19:02 | 51.69053 | 2.68783 | 32185 ft | 396 kts | 259° |
| 2026-05-04 19:03 | 51.68662 | 2.64392 | 31608 ft | 393 kts | 259° |
| 2026-05-04 19:03 | 51.68273 | 2.60042 | 31046 ft | 390 kts | 259° |
| 2026-05-04 19:03 | 51.67884 | 2.55710 | 30494 ft | 388 kts | 259° |
| 2026-05-04 19:03 | 51.67496 | 2.51433 | 29944 ft | 385 kts | 259° |
| 2026-05-04 19:04 | 51.67114 | 2.47225 | 29348 ft | 382 kts | 259° |
| 2026-05-04 19:04 | 51.66728 | 2.43002 | 28782 ft | 378 kts | 259° |
| 2026-05-04 19:04 | 51.66345 | 2.38832 | 28230 ft | 375 kts | 259° |
| 2026-05-04 19:04 | 51.65964 | 2.34694 | 27704 ft | 372 kts | 259° |
| 2026-05-04 19:05 | 51.65588 | 2.30595 | 27191 ft | 368 kts | 259° |
| 2026-05-04 19:05 | 51.65211 | 2.26515 | 26683 ft | 365 kts | 259° |
| 2026-05-04 19:05 | 51.64835 | 2.22489 | 26184 ft | 362 kts | 259° |
| 2026-05-04 19:05 | 51.64458 | 2.18500 | 25685 ft | 359 kts | 260° |
| 2026-05-04 19:06 | 51.64083 | 2.14544 | 25189 ft | 356 kts | 260° |
| 2026-05-04 19:06 | 51.63712 | 2.10602 | 24696 ft | 353 kts | 260° |
| 2026-05-04 19:06 | 51.63349 | 2.06712 | 24209 ft | 350 kts | 260° |
| 2026-05-04 19:06 | 51.62991 | 2.02837 | 23715 ft | 348 kts | 260° |
| 2026-05-04 19:07 | 51.62641 | 1.99040 | 23172 ft | 346 kts | 261° |
| 2026-05-04 19:07 | 51.62288 | 1.95218 | 22618 ft | 343 kts | 260° |
| 2026-05-04 19:07 | 51.61937 | 1.91431 | 22097 ft | 341 kts | 260° |
| 2026-05-04 19:07 | 51.61572 | 1.87669 | 21582 ft | 338 kts | 257° |
| 2026-05-04 19:08 | 51.60872 | 1.84085 | 21094 ft | 335 kts | 245° |
| 2026-05-04 19:08 | 51.59704 | 1.80862 | 20583 ft | 333 kts | 232° |
| 2026-05-04 19:08 | 51.58202 | 1.78047 | 20094 ft | 331 kts | 228° |
| 2026-05-04 19:08 | 51.56668 | 1.75275 | 19612 ft | 330 kts | 228° |
| 2026-05-04 19:09 | 51.55146 | 1.72519 | 19141 ft | 329 kts | 228° |
| 2026-05-04 19:09 | 51.53631 | 1.69775 | 18683 ft | 328 kts | 228° |
| 2026-05-04 19:09 | 51.52115 | 1.67027 | 18230 ft | 327 kts | 228° |
| 2026-05-04 19:09 | 51.50624 | 1.64326 | 17728 ft | 326 kts | 228° |
| 2026-05-04 19:10 | 51.49213 | 1.61480 | 17244 ft | 325 kts | 237° |
| 2026-05-04 19:10 | 51.48212 | 1.58243 | 16780 ft | 324 kts | 249° |
| 2026-05-04 19:10 | 51.47446 | 1.54842 | 16324 ft | 323 kts | 250° |
| 2026-05-04 19:10 | 51.46671 | 1.51450 | 15895 ft | 322 kts | 250° |
| 2026-05-04 19:11 | 51.45896 | 1.48093 | 15467 ft | 320 kts | 250° |
| 2026-05-04 19:11 | 51.45121 | 1.44751 | 15049 ft | 319 kts | 250° |
| 2026-05-04 19:11 | 51.44348 | 1.41424 | 14641 ft | 318 kts | 249° |
| 2026-05-04 19:11 | 51.43319 | 1.38297 | 14243 ft | 317 kts | 235° |
| 2026-05-04 19:12 | 51.41870 | 1.35697 | 14022 ft | 317 kts | 221° |
| 2026-05-04 19:12 | 51.38328 | 1.31442 | 14022 ft | 319 kts | 217° |
| 2026-05-04 19:12 | 51.36541 | 1.29322 | 14023 ft | 319 kts | 217° |
| 2026-05-04 19:13 | 51.34759 | 1.27208 | 14024 ft | 319 kts | 216° |
| 2026-05-04 19:13 | 51.32983 | 1.25104 | 13779 ft | 316 kts | 216° |
| 2026-05-04 19:13 | 51.31215 | 1.23013 | 13333 ft | 315 kts | 217° |
| 2026-05-04 19:13 | 51.29481 | 1.20964 | 12916 ft | 312 kts | 217° |
| 2026-05-04 19:14 | 51.27736 | 1.18906 | 12506 ft | 310 kts | 216° |
| 2026-05-04 19:14 | 51.25989 | 1.16847 | 12091 ft | 307 kts | 216° |
| 2026-05-04 19:14 | 51.24289 | 1.14850 | 11685 ft | 305 kts | 216° |
| 2026-05-04 19:14 | 51.22590 | 1.12852 | 11281 ft | 303 kts | 216° |
| 2026-05-04 19:15 | 51.20895 | 1.10862 | 10869 ft | 301 kts | 216° |
| 2026-05-04 19:15 | 51.19217 | 1.08894 | 10456 ft | 298 kts | 216° |
| 2026-05-04 19:15 | 51.17545 | 1.06935 | 10050 ft | 296 kts | 216° |
| 2026-05-04 19:15 | 51.15898 | 1.05009 | 9773 ft | 289 kts | 216° |
| 2026-05-04 19:16 | 51.14288 | 1.03127 | 9373 ft | 286 kts | 216° |
| 2026-05-04 19:16 | 51.12691 | 1.01260 | 8931 ft | 284 kts | 216° |
| 2026-05-04 19:16 | 51.11100 | 0.99404 | 8487 ft | 282 kts | 216° |
| 2026-05-04 19:16 | 51.09536 | 0.97582 | 8093 ft | 281 kts | 216° |
| 2026-05-04 19:17 | 51.07966 | 0.95755 | 7638 ft | 279 kts | 216° |
| 2026-05-04 19:17 | 51.06463 | 0.93806 | 7200 ft | 278 kts | 226° |
| 2026-05-04 19:17 | 51.05271 | 0.91412 | 7017 ft | 276 kts | 239° |
| 2026-05-04 19:17 | 51.04568 | 0.88620 | 7022 ft | 276 kts | 262° |
| 2026-05-04 19:18 | 51.04486 | 0.85569 | 7028 ft | 277 kts | 271° |
| 2026-05-04 19:18 | 51.04511 | 0.82510 | 7027 ft | 277 kts | 271° |
| 2026-05-04 19:18 | 51.04547 | 0.79454 | 7026 ft | 277 kts | 271° |
| 2026-05-04 19:18 | 51.04585 | 0.76392 | 7027 ft | 277 kts | 271° |
| 2026-05-04 19:19 | 51.04623 | 0.73359 | 7024 ft | 277 kts | 271° |
| 2026-05-04 19:19 | 51.04664 | 0.70301 | 7025 ft | 277 kts | 271° |
| 2026-05-04 19:19 | 51.04706 | 0.67235 | 7026 ft | 277 kts | 271° |
| 2026-05-04 19:19 | 51.04748 | 0.64176 | 7008 ft | 277 kts | 271° |
| 2026-05-04 19:20 | 51.04790 | 0.61113 | 7006 ft | 277 kts | 271° |
| 2026-05-04 19:20 | 51.04833 | 0.58057 | 7007 ft | 277 kts | 271° |
| 2026-05-04 19:20 | 51.04878 | 0.54990 | 7005 ft | 277 kts | 271° |
| 2026-05-04 19:20 | 51.04922 | 0.51936 | 7006 ft | 277 kts | 271° |
| 2026-05-04 19:21 | 51.04964 | 0.48870 | 7004 ft | 277 kts | 271° |
| 2026-05-04 19:21 | 51.05008 | 0.45815 | 7005 ft | 277 kts | 271° |
| 2026-05-04 19:21 | 51.05052 | 0.42753 | 7005 ft | 277 kts | 271° |
| 2026-05-04 19:21 | 51.05096 | 0.39731 | 7006 ft | 277 kts | 271° |
| 2026-05-04 19:22 | 51.05140 | 0.36660 | 7008 ft | 277 kts | 271° |
| 2026-05-04 19:22 | 51.05185 | 0.33604 | 7008 ft | 277 kts | 271° |
| 2026-05-04 19:22 | 51.05229 | 0.30567 | 7004 ft | 277 kts | 271° |
| 2026-05-04 19:22 | 51.05272 | 0.27473 | 7006 ft | 276 kts | 271° |
| 2026-05-04 19:23 | 51.05316 | 0.24460 | 7005 ft | 277 kts | 271° |
| 2026-05-04 19:23 | 51.05362 | 0.21397 | 7008 ft | 277 kts | 271° |
| 2026-05-04 19:23 | 51.05407 | 0.18350 | 7008 ft | 276 kts | 271° |
| 2026-05-04 19:23 | 51.05449 | 0.15300 | 7009 ft | 276 kts | 271° |
| 2026-05-04 19:24 | 51.05491 | 0.12290 | 7009 ft | 276 kts | 271° |
| 2026-05-04 19:24 | 51.05535 | 0.09258 | 7008 ft | 276 kts | 271° |
| 2026-05-04 19:24 | 51.05560 | 0.06176 | 6850 ft | 274 kts | 269° |
| 2026-05-04 19:24 | 51.05465 | 0.03197 | 6388 ft | 272 kts | 266° |
| 2026-05-04 19:25 | 51.05339 | 0.00202 | 5890 ft | 271 kts | 266° |
| 2026-05-04 19:25 | 51.05202 | -0.02821 | 5390 ft | 270 kts | 266° |
| 2026-05-04 19:25 | 51.05062 | -0.05754 | 4912 ft | 269 kts | 266° |
| 2026-05-04 19:25 | 51.04914 | -0.08719 | 4406 ft | 268 kts | 266° |
| 2026-05-04 19:26 | 51.04761 | -0.11659 | 3902 ft | 268 kts | 266° |
| 2026-05-04 19:26 | 51.04606 | -0.14602 | 3424 ft | 266 kts | 266° |
| 2026-05-04 19:26 | 51.04461 | -0.17396 | 3059 ft | 264 kts | 266° |
| 2026-05-04 19:26 | 51.04306 | -0.20373 | 3005 ft | 265 kts | 266° |
| 2026-05-04 19:27 | 51.04153 | -0.23297 | 3012 ft | 266 kts | 266° |
| 2026-05-04 19:27 | 51.04000 | -0.26205 | 3001 ft | 267 kts | 266° |
| 2026-05-04 19:27 | 51.03845 | -0.29146 | 3016 ft | 267 kts | 266° |
| 2026-05-04 19:27 | 51.03688 | -0.32086 | 3015 ft | 267 kts | 266° |
| 2026-05-04 19:28 | 51.03530 | -0.35024 | 3015 ft | 267 kts | 266° |
| 2026-05-04 19:28 | 51.03373 | -0.37974 | 3016 ft | 267 kts | 266° |
| 2026-05-04 19:28 | 51.03271 | -0.39913 | 3032 ft | 262 kts | 266° |
| 2026-05-04 19:28 | 51.03126 | -0.42620 | 3028 ft | 230 kts | 266° |
| 2026-05-04 19:29 | 51.02993 | -0.45011 | 3022 ft | 204 kts | 266° |
| 2026-05-04 19:29 | 51.03377 | -0.47742 | 3057 ft | 192 kts | 310° |
| 2026-05-04 19:29 | 51.04059 | -0.48632 | 3032 ft | 186 kts | 337° |
| 2026-05-04 19:29 | 51.05693 | -0.49372 | 3035 ft | 183 kts | 350° |
| 2026-05-04 19:30 | 51.06537 | -0.49648 | 3025 ft | 184 kts | 351° |
| 2026-05-04 19:30 | 51.07768 | -0.50019 | 3027 ft | 183 kts | 355° |
| 2026-05-04 19:30 | 51.08962 | -0.49647 | 3026 ft | 179 kts | 33° |
| 2026-05-04 19:30 | 51.09825 | -0.48524 | 3036 ft | 179 kts | 44° |
| 2026-05-04 19:31 | 51.10682 | -0.47084 | 3028 ft | 179 kts | 54° |
| 2026-05-04 19:31 | 51.11112 | -0.45585 | 3032 ft | 179 kts | 75° |
| 2026-05-04 19:31 | 51.11392 | -0.43594 | 3021 ft | 181 kts | 76° |
| 2026-05-04 19:31 | 51.11675 | -0.41570 | 2860 ft | 196 kts | 76° |
| 2026-05-04 19:32 | 51.11976 | -0.39423 | 2628 ft | 198 kts | 76° |
| 2026-05-04 19:32 | 51.12273 | -0.37295 | 2365 ft | 197 kts | 76° |
| 2026-05-04 19:32 | 51.12565 | -0.35209 | 2098 ft | 185 kts | 76° |
| 2026-05-04 19:32 | 51.12827 | -0.33325 | 1864 ft | 170 kts | 76° |
| 2026-05-04 19:33 | 51.13074 | -0.31555 | 1643 ft | 158 kts | 76° |
| 2026-05-04 19:33 | 51.13301 | -0.29929 | 1442 ft | 144 kts | 76° |
| 2026-05-04 19:33 | 51.13510 | -0.28432 | 1234 ft | 134 kts | 76° |
| 2026-05-04 19:33 | 51.13705 | -0.27028 | 1049 ft | 127 kts | 75° |
| 2026-05-04 19:34 | 51.13892 | -0.25681 | 838 ft | 122 kts | 76° |
| 2026-05-04 19:34 | 51.14074 | -0.24388 | 690 ft | 119 kts | 75° |
| 2026-05-04 19:34 | 51.14252 | -0.23088 | 553 ft | 120 kts | 76° |
| 2026-05-04 19:34 | 51.14435 | -0.21807 | 367 ft | 118 kts | 77° |
| 2026-05-04 19:35 | 51.14609 | -0.20531 | 235 ft | 117 kts | 76° |
| 2026-05-04 19:35 | 51.14768 | -0.19388 | 209 ft | 84 kts | 78° |
| 2026-05-04 19:35 | 51.14854 | -0.18762 | 211 ft | 28 kts | 76° |
| 2026-05-04 19:35 | 51.14890 | -0.18639 | 215 ft | 13 kts | 60° |
| 2026-05-04 19:36 | 51.14957 | -0.18485 | 216 ft | 20 kts | 53° |
| 2026-05-04 19:36 | 51.15038 | -0.18327 | 212 ft | 12 kts | 55° |
| 2026-05-04 19:36 | 51.15084 | -0.18234 | 207 ft | 8 kts | 51° |
| 2026-05-04 19:36 | 51.15088 | -0.18226 | 207 ft | 0 kts | 51° |
| 2026-05-04 19:37 | 51.15089 | -0.18224 | 207 ft | 2 kts | 51° |
| 2026-05-04 19:37 | 51.15122 | -0.18108 | 213 ft | 16 kts | 76° |
| 2026-05-04 19:37 | 51.15149 | -0.17924 | 214 ft | 19 kts | 78° |
| 2026-05-04 19:37 | 51.15162 | -0.17827 | 212 ft | 1 kts | 78° |
| 2026-05-04 19:38 | 51.15163 | -0.17822 | 208 ft | 0 kts | 78° |
| 2026-05-04 19:38 | 51.15173 | -0.17798 | 217 ft | 9 kts | 43° |
| 2026-05-04 19:39 | 51.15254 | -0.17743 | 212 ft | 15 kts | 60° |
| 2026-05-04 19:39 | 51.15284 | -0.17566 | 206 ft | 18 kts | 78° |
| 2026-05-04 19:39 | 51.15303 | -0.17383 | 216 ft | 16 kts | 85° |
| 2026-05-04 19:39 | 51.15348 | -0.17256 | 211 ft | 14 kts | 359° |
| 2026-05-04 19:40 | 51.15457 | -0.17283 | 206 ft | 18 kts | 349° |
| 2026-05-04 19:40 | 51.15572 | -0.17314 | 211 ft | 12 kts | 7° |
| 2026-05-04 19:40 | 51.15617 | -0.17191 | 211 ft | 15 kts | 79° |
| 2026-05-04 19:40 | 51.15625 | -0.17119 | 210 ft | 0 kts | 79° |
| 2026-05-04 19:41 | 51.15636 | -0.17073 | 211 ft | 13 kts | 55° |
| 2026-05-04 19:41 | 51.15764 | -0.17069 | 206 ft | 20 kts | 348° |
| 2026-05-04 19:41 | 51.15881 | -0.17089 | 214 ft | 13 kts | 327° |
| 2026-05-04 19:42 | 51.15928 | -0.17154 | 213 ft | 4 kts | 313° |